createdAt,value
2023-06-19T00:02:13.566Z,11.95
2023-06-19T00:04:40.280Z,12.30
2023-06-19T00:07:07.043Z,13.73
2023-06-19T00:09:33.913Z,10.90
2023-06-19T00:12:00.624Z,11.38
2023-06-19T00:14:27.333Z,11.93
2023-06-19T00:16:55.561Z,12.45
2023-06-19T00:19:22.155Z,13.50
2023-06-19T00:21:48.809Z,14.40
2023-06-19T00:24:15.517Z,13.18
2023-06-19T00:26:42.222Z,13.88
2023-06-19T00:29:08.886Z,11.35
2023-06-19T00:31:35.543Z,11.93
2023-06-19T00:34:03.603Z,13.23
2023-06-19T00:36:30.303Z,11.35
2023-06-19T00:38:56.945Z,12.35
2023-06-19T00:41:23.632Z,12.75
2023-06-19T00:43:50.296Z,11.18
2023-06-19T00:46:17.081Z,11.93
2023-06-19T00:48:43.997Z,11.90
2023-06-19T00:51:12.083Z,13.35
2023-06-19T00:53:39.169Z,12.00
2023-06-19T00:56:06.635Z,12.15
2023-06-19T00:58:33.612Z,11.90
2023-06-19T01:01:08.605Z,12.27
2023-06-19T01:03:36.517Z,12.80
2023-06-19T01:06:06.678Z,11.43
2023-06-19T01:08:44.488Z,12.15
2023-06-19T01:11:26.065Z,15.33
2023-06-19T01:13:57.149Z,11.20
2023-06-19T01:16:24.486Z,12.57
2023-06-19T01:18:51.532Z,11.50
2023-06-19T01:21:19.733Z,12.88
2023-06-19T01:23:48.123Z,11.97
2023-06-19T01:26:15.973Z,11.93
2023-06-19T01:28:44.732Z,11.52
2023-06-19T01:31:14.220Z,11.27
2023-06-19T01:33:43.691Z,11.98
2023-06-19T01:36:11.596Z,13.33
2023-06-19T01:38:39.782Z,11.55
2023-06-19T01:41:08.967Z,11.40
2023-06-19T01:43:36.431Z,12.77
2023-06-19T01:46:03.383Z,12.10
2023-06-19T01:48:30.185Z,11.37
2023-06-19T01:50:56.886Z,13.05
2023-06-19T01:53:23.543Z,13.10
2023-06-19T01:55:50.617Z,13.02
2023-06-19T01:58:19.858Z,14.40
2023-06-19T02:00:46.522Z,12.67
2023-06-19T02:03:13.254Z,12.38
2023-06-19T02:05:39.996Z,12.73
2023-06-19T02:08:06.844Z,12.85
2023-06-19T02:10:33.584Z,17.42
2023-06-19T02:13:00.255Z,10.77
2023-06-19T02:15:28.335Z,13.77
2023-06-19T02:17:56.418Z,13.80
2023-06-19T02:20:23.959Z,15.70
2023-06-19T02:22:51.534Z,12.25
2023-06-19T02:25:18.648Z,13.60
2023-06-19T02:27:45.586Z,11.85
2023-06-19T02:30:12.816Z,12.68
2023-06-19T02:32:40.917Z,11.57
2023-06-19T02:35:11.708Z,13.07
2023-06-19T02:37:38.666Z,14.70
2023-06-19T02:40:06.017Z,13.07
2023-06-19T02:42:32.688Z,12.10
2023-06-19T02:44:59.325Z,12.35
2023-06-19T02:47:26.132Z,12.18
2023-06-19T02:49:54.215Z,13.07
2023-06-19T02:52:20.902Z,12.60
2023-06-19T02:54:47.642Z,12.90
2023-06-19T02:57:14.276Z,13.10
2023-06-19T02:59:40.959Z,12.05
2023-06-19T03:02:07.629Z,15.20
2023-06-19T03:04:34.319Z,13.50
2023-06-19T03:07:02.439Z,13.93
2023-06-19T03:09:29.100Z,11.18
2023-06-19T03:11:55.797Z,12.60
2023-06-19T03:14:22.441Z,15.67
2023-06-19T03:16:49.179Z,12.85
2023-06-19T03:19:15.912Z,14.52
2023-06-19T03:21:42.568Z,14.07
2023-06-19T03:24:10.608Z,12.32
2023-06-19T03:26:37.407Z,13.17
2023-06-19T03:29:04.128Z,13.48
2023-06-19T03:31:30.833Z,12.63
2023-06-19T03:33:57.525Z,13.77
2023-06-19T03:36:24.175Z,12.43
2023-06-19T03:38:50.853Z,15.77
2023-06-19T03:41:18.866Z,12.38
2023-06-19T03:43:45.524Z,14.55
2023-06-19T03:46:12.259Z,12.40
2023-06-19T03:48:39.186Z,14.05
2023-06-19T03:51:05.795Z,13.53
2023-06-19T03:53:32.473Z,13.70
2023-06-19T03:55:59.072Z,14.95
2023-06-19T03:58:27.140Z,11.90
2023-06-19T04:00:53.876Z,13.65
2023-06-19T04:03:20.926Z,11.27
2023-06-19T04:05:47.666Z,15.18
2023-06-19T04:08:14.313Z,14.43
2023-06-19T04:10:40.965Z,14.10
2023-06-19T04:13:07.652Z,15.07
2023-06-19T04:15:35.870Z,15.17
2023-06-19T04:18:02.842Z,21.08
2023-06-19T04:20:29.565Z,16.30
2023-06-19T04:22:56.262Z,15.25
2023-06-19T04:25:23.323Z,15.07
2023-06-19T04:27:49.971Z,12.70
2023-06-19T04:30:16.694Z,14.18
2023-06-19T04:32:44.919Z,16.05
2023-06-19T04:35:11.758Z,14.75
2023-06-19T04:37:38.452Z,19.67
2023-06-19T04:40:06.341Z,22.77
2023-06-19T04:42:32.995Z,22.95
2023-06-19T04:44:59.770Z,25.27
2023-06-19T04:47:33.418Z,17.52
2023-06-19T04:50:05.754Z,15.68
2023-06-19T04:52:32.423Z,14.47
2023-06-19T04:54:59.076Z,15.88
2023-06-19T04:57:25.718Z,14.13
2023-06-19T05:02:32.930Z,16.73
2023-06-19T05:04:59.561Z,12.13
2023-06-19T05:07:27.566Z,10.25
2023-06-19T05:09:54.235Z,13.43
2023-06-19T05:12:20.928Z,9.95
2023-06-19T05:14:47.577Z,10.60
2023-06-19T05:17:14.649Z,10.17
2023-06-19T05:19:41.326Z,11.77
2023-06-19T05:22:08.016Z,10.65
2023-06-19T05:24:36.097Z,11.20
2023-06-19T05:27:02.801Z,12.65
2023-06-19T05:29:29.494Z,11.10
2023-06-19T05:31:56.202Z,15.77
2023-06-19T05:34:23.137Z,10.90
2023-06-19T05:36:49.886Z,12.45
2023-06-19T05:39:16.582Z,12.77
2023-06-19T05:41:44.692Z,12.77
2023-06-19T05:44:11.360Z,13.30
2023-06-19T05:46:38.430Z,11.82
2023-06-19T05:49:05.080Z,12.30
2023-06-19T05:51:31.784Z,14.43
2023-06-19T05:53:58.504Z,12.60
2023-06-19T05:56:25.159Z,12.15
2023-06-19T05:58:53.429Z,11.30
2023-06-19T06:01:20.277Z,14.98
2023-06-19T06:03:47.043Z,11.98
2023-06-19T06:06:13.700Z,12.93
2023-06-19T06:08:40.421Z,12.30
2023-06-19T06:11:07.065Z,12.68
2023-06-19T06:13:33.826Z,12.60
2023-06-19T06:16:01.859Z,11.70
2023-06-19T06:18:28.535Z,11.00
2023-06-19T06:20:55.243Z,12.43
2023-06-19T06:23:21.905Z,12.80
2023-06-19T06:25:48.554Z,11.65
2023-06-19T06:28:15.213Z,11.13
2023-06-19T06:30:41.911Z,12.47
2023-06-19T06:33:10.152Z,10.23
2023-06-19T06:35:36.914Z,10.90
2023-06-19T06:38:03.580Z,12.98
2023-06-19T06:40:30.254Z,12.43
2023-06-19T06:45:37.390Z,11.63
2023-06-19T06:48:04.608Z,11.55
2023-06-19T06:50:32.765Z,10.57
2023-06-19T06:52:59.466Z,11.52
2023-06-19T06:55:26.144Z,10.07
2023-06-19T06:57:52.876Z,12.00
2023-06-19T07:00:19.909Z,12.10
2023-06-19T07:02:46.721Z,12.38
2023-06-19T07:05:13.437Z,10.88
2023-06-19T07:07:41.471Z,12.57
2023-06-19T07:10:10.099Z,12.02
2023-06-19T07:12:36.719Z,12.77
2023-06-19T07:15:03.646Z,13.13
2023-06-19T07:17:30.376Z,11.55
2023-06-19T07:19:57.042Z,10.77
2023-06-19T07:22:23.692Z,10.98
2023-06-19T07:24:51.740Z,11.68
2023-06-19T07:27:18.498Z,10.73
2023-06-19T07:29:45.609Z,12.32
2023-06-19T07:32:12.304Z,9.73
2023-06-19T07:34:39.636Z,11.20
2023-06-19T07:37:06.590Z,11.63
2023-06-19T07:39:33.275Z,13.85
2023-06-19T07:42:01.414Z,12.20
2023-06-19T07:44:28.082Z,12.63
2023-06-19T07:46:54.772Z,13.02
2023-06-19T07:49:21.473Z,11.25
2023-06-19T07:51:48.145Z,11.93
2023-06-19T07:54:14.777Z,9.30
2023-06-19T07:56:41.445Z,12.23
2023-06-19T07:59:09.427Z,11.18
2023-06-19T08:01:36.066Z,11.48
2023-06-19T08:04:02.777Z,12.35
2023-06-19T08:06:29.460Z,10.27
2023-06-19T08:08:56.160Z,9.33
2023-06-19T08:11:22.809Z,12.32
2023-06-19T08:13:49.613Z,9.45
2023-06-19T08:16:17.697Z,11.77
2023-06-19T08:18:45.006Z,9.70
2023-06-19T08:21:11.708Z,10.60
2023-06-19T08:23:38.455Z,9.15
2023-06-19T08:26:05.128Z,9.60
2023-06-19T08:28:32.126Z,9.15
2023-06-19T08:30:58.802Z,9.80
2023-06-19T08:33:27.023Z,9.07
2023-06-19T08:35:53.708Z,10.35
2023-06-19T08:38:20.441Z,11.52
2023-06-19T08:40:47.168Z,10.38
2023-06-19T08:43:13.974Z,9.38
2023-06-19T08:45:41.111Z,10.07
2023-06-19T08:48:07.871Z,9.95
2023-06-19T08:50:35.960Z,10.23
2023-06-19T08:53:02.640Z,9.73
2023-06-19T08:55:29.312Z,9.50
2023-06-19T08:57:55.959Z,10.23
2023-06-19T09:00:27.590Z,10.50
2023-06-19T09:03:11.885Z,9.00
2023-06-19T09:05:44.137Z,10.82
2023-06-19T09:08:14.634Z,9.65
2023-06-19T09:10:41.310Z,9.50
2023-06-19T09:13:07.973Z,10.55
2023-06-19T09:15:36.959Z,9.38
2023-06-19T09:18:04.890Z,8.38
2023-06-19T09:20:32.034Z,8.68
2023-06-19T09:23:00.411Z,11.50
2023-06-19T09:25:27.200Z,8.80
2023-06-19T09:27:54.122Z,9.05
2023-06-19T09:30:21.553Z,13.38
2023-06-19T09:32:48.443Z,8.45
2023-06-19T09:35:15.373Z,12.73
2023-06-19T09:37:42.255Z,9.50
2023-06-19T09:40:10.909Z,8.63
2023-06-19T09:42:39.592Z,8.27
2023-06-19T09:45:08.528Z,9.05
2023-06-19T09:47:37.892Z,8.50
2023-06-19T09:50:06.703Z,8.82
2023-06-19T09:52:34.281Z,9.18
2023-06-19T09:55:03.579Z,9.23
2023-06-19T09:57:32.660Z,10.05
2023-06-19T10:00:02.270Z,7.77
2023-06-19T10:02:29.566Z,10.00
2023-06-19T10:04:57.267Z,8.63
2023-06-19T10:07:33.117Z,10.05
2023-06-19T10:10:00.539Z,7.78
2023-06-19T10:12:42.374Z,10.17
2023-06-19T10:15:15.811Z,9.18
2023-06-19T10:17:48.152Z,8.40
2023-06-19T10:20:24.490Z,8.15
2023-06-19T10:22:58.757Z,8.13
2023-06-19T10:25:28.330Z,8.63
2023-06-19T10:27:56.388Z,8.93
2023-06-19T10:30:23.103Z,8.05
2023-06-19T10:32:50.322Z,9.05
2023-06-19T10:35:18.911Z,7.45
2023-06-19T10:37:45.646Z,7.53
2023-06-19T10:40:12.965Z,9.05
2023-06-19T10:42:39.827Z,7.03
2023-06-19T10:45:10.112Z,8.27
2023-06-19T10:47:38.629Z,7.97
2023-06-19T10:50:06.637Z,7.23
2023-06-19T10:52:34.011Z,6.82
2023-06-19T10:55:00.710Z,7.22
2023-06-19T10:57:28.997Z,6.97
2023-06-19T10:59:55.690Z,6.70
2023-06-19T11:02:24.208Z,6.97
2023-06-19T11:04:53.331Z,7.90
2023-06-19T11:07:20.104Z,7.18
2023-06-19T11:09:46.789Z,8.30
2023-06-19T11:12:19.377Z,7.28
2023-06-19T11:14:46.061Z,9.00
2023-06-19T11:17:12.944Z,6.90
2023-06-19T11:19:41.172Z,8.90
2023-06-19T11:22:07.858Z,7.47
2023-06-19T11:24:34.641Z,8.60
2023-06-19T11:27:01.436Z,7.43
2023-06-19T11:29:31.095Z,8.55
2023-06-19T11:32:06.782Z,7.63
2023-06-19T11:34:34.328Z,7.18
2023-06-19T11:37:02.413Z,8.07
2023-06-19T11:39:29.179Z,7.00
2023-06-19T11:41:55.986Z,7.32
2023-06-19T11:44:22.745Z,8.90
2023-06-19T11:46:49.433Z,10.35
2023-06-19T11:49:17.478Z,7.07
2023-06-19T11:51:44.220Z,8.97
2023-06-19T11:54:15.503Z,7.53
2023-06-19T11:56:42.669Z,8.18
2023-06-19T11:59:09.353Z,7.50
2023-06-19T12:01:37.815Z,7.35
2023-06-19T12:04:05.369Z,9.43
2023-06-19T12:06:32.282Z,8.25
2023-06-19T12:08:59.034Z,7.10
2023-06-19T12:11:27.133Z,9.05
2023-06-19T12:13:53.868Z,6.85
2023-06-19T12:16:20.630Z,7.33
2023-06-19T12:18:47.614Z,8.65
2023-06-19T12:21:29.088Z,7.47
2023-06-19T12:24:00.297Z,8.15
2023-06-19T12:26:28.424Z,8.43
2023-06-19T12:28:55.077Z,7.77
2023-06-19T12:31:21.883Z,8.57
2023-06-19T12:33:48.706Z,8.35
2023-06-19T12:36:16.000Z,8.27
2023-06-19T12:38:42.747Z,8.38
2023-06-19T12:41:09.498Z,7.00
2023-06-19T12:43:37.507Z,8.40
2023-06-19T12:46:04.300Z,8.88
2023-06-19T12:48:31.095Z,8.70
2023-06-19T12:50:57.791Z,8.40
2023-06-19T12:53:24.521Z,8.10
2023-06-19T12:56:00.926Z,9.02
2023-06-19T12:58:29.735Z,7.05
2023-06-19T13:00:57.886Z,7.57
2023-06-19T13:03:24.693Z,7.15
2023-06-19T13:05:51.630Z,8.57
2023-06-19T13:08:18.508Z,7.32
2023-06-19T13:10:45.262Z,8.25
2023-06-19T13:13:12.522Z,8.00
2023-06-19T13:15:39.199Z,7.38
2023-06-19T13:18:07.342Z,8.67
2023-06-19T13:20:34.072Z,6.88
2023-06-19T13:23:00.750Z,9.50
2023-06-19T13:25:27.445Z,6.70
2023-06-19T13:27:54.135Z,7.90
2023-06-19T13:30:20.952Z,9.03
2023-06-19T13:32:47.790Z,6.75
2023-06-19T13:35:16.007Z,7.00
2023-06-19T13:37:42.641Z,8.05
2023-06-19T13:40:10.118Z,6.75
2023-06-19T13:42:36.749Z,7.60
2023-06-19T13:45:03.952Z,7.22
2023-06-19T13:47:30.744Z,7.68
2023-06-19T13:49:57.482Z,7.18
2023-06-19T13:52:25.559Z,7.72
2023-06-19T13:54:54.677Z,7.30
2023-06-19T13:57:22.326Z,7.70
2023-06-19T13:59:49.052Z,7.90
2023-06-19T14:02:15.863Z,8.60
2023-06-19T14:04:42.547Z,7.25
2023-06-19T14:07:09.399Z,9.13
2023-06-19T14:09:37.636Z,9.50
2023-06-19T14:12:04.937Z,6.63
2023-06-19T14:14:31.796Z,7.00
2023-06-19T14:16:58.597Z,6.78
2023-06-19T14:19:25.346Z,9.47
2023-06-19T14:21:52.606Z,7.78
2023-06-19T14:24:19.381Z,9.57
2023-06-19T14:26:47.392Z,6.70
2023-06-19T14:29:14.074Z,7.20
2023-06-19T14:31:40.728Z,8.07
2023-06-19T14:34:07.642Z,6.13
2023-06-19T14:36:34.238Z,7.13
2023-06-19T14:39:01.000Z,9.00
2023-06-19T14:41:27.690Z,7.55
2023-06-19T14:43:55.789Z,6.83
2023-06-19T14:46:37.302Z,6.68
2023-06-19T14:49:05.550Z,6.60
2023-06-19T14:51:32.263Z,7.82
2023-06-19T14:53:58.965Z,7.35
2023-06-19T14:56:25.674Z,8.17
2023-06-19T14:58:52.386Z,7.97
2023-06-19T15:01:20.551Z,8.77
2023-06-19T15:03:47.391Z,7.85
2023-06-19T15:06:14.225Z,7.30
2023-06-19T15:08:40.866Z,8.33
2023-06-19T15:11:07.492Z,8.48
2023-06-19T15:13:34.501Z,8.45
2023-06-19T15:16:01.228Z,8.73
2023-06-19T15:18:29.520Z,7.65
2023-06-19T15:20:56.262Z,9.50
2023-06-19T15:23:22.971Z,7.18
2023-06-19T15:25:49.663Z,7.20
2023-06-19T15:28:16.358Z,8.65
2023-06-19T15:30:43.016Z,7.57
2023-06-19T15:33:09.778Z,8.27
2023-06-19T15:35:37.812Z,7.40
2023-06-19T15:38:04.500Z,9.10
2023-06-19T15:40:31.433Z,7.30
2023-06-19T15:42:58.194Z,8.07
2023-06-19T15:45:24.934Z,9.13
2023-06-19T15:47:51.846Z,7.15
2023-06-19T15:50:18.592Z,7.07
2023-06-19T15:52:46.632Z,8.70
2023-06-19T15:55:13.765Z,8.20
2023-06-19T15:57:40.492Z,7.10
2023-06-19T16:00:08.291Z,13.57
2023-06-19T16:02:35.096Z,10.65
2023-06-19T16:05:01.866Z,8.57
2023-06-19T16:07:28.543Z,9.18
2023-06-19T16:09:56.527Z,7.53
2023-06-19T16:12:23.335Z,9.05
2023-06-19T16:14:50.053Z,8.57
2023-06-19T16:17:16.740Z,7.22
2023-06-19T16:19:43.489Z,8.07
2023-06-19T16:22:10.113Z,6.90
2023-06-19T16:24:37.018Z,8.38
2023-06-19T16:27:05.687Z,7.20
2023-06-19T16:29:32.420Z,8.07
2023-06-19T16:32:09.089Z,8.70
2023-06-19T16:34:37.578Z,8.20
2023-06-19T16:37:04.830Z,8.57
2023-06-19T16:39:31.484Z,8.32
2023-06-19T16:41:58.279Z,9.05
2023-06-19T16:44:26.377Z,7.10
2023-06-19T16:46:53.120Z,7.60
2023-06-19T16:49:19.853Z,7.15
2023-06-19T16:51:48.046Z,6.93
2023-06-19T16:54:14.877Z,7.15
2023-06-19T16:56:41.681Z,6.97
2023-06-19T16:59:08.399Z,8.97
2023-06-19T17:01:37.252Z,6.45
2023-06-19T17:04:04.214Z,7.28
2023-06-19T17:06:31.036Z,7.75
2023-06-19T17:08:58.023Z,7.10
2023-06-19T17:11:24.756Z,7.13
2023-06-19T17:13:51.420Z,6.57
2023-06-19T17:16:18.137Z,6.63
2023-06-19T17:18:46.146Z,6.45
2023-06-19T17:21:12.941Z,6.85
2023-06-19T17:23:39.598Z,6.30
2023-06-19T17:26:06.352Z,7.80
2023-06-19T17:28:33.050Z,7.10
2023-06-19T17:30:59.730Z,7.70
2023-06-19T17:33:26.475Z,7.88
2023-06-19T17:35:54.498Z,6.13
2023-06-19T17:38:21.177Z,8.15
2023-06-19T17:40:47.859Z,7.80
2023-06-19T17:43:14.519Z,6.68
2023-06-19T17:45:41.168Z,6.65
2023-06-19T17:48:07.833Z,7.03
2023-06-19T17:50:34.604Z,6.40
2023-06-19T17:53:02.670Z,6.63
2023-06-19T17:55:29.327Z,6.32
2023-06-19T17:57:56.042Z,6.55
2023-06-19T18:00:23.044Z,7.60
2023-06-19T18:02:49.966Z,7.20
2023-06-19T18:05:16.960Z,7.05
2023-06-19T18:07:43.598Z,7.40
2023-06-19T18:10:13.100Z,6.63
2023-06-19T18:12:41.242Z,10.53
2023-06-19T18:15:08.694Z,5.88
2023-06-19T18:17:35.338Z,7.05
2023-06-19T18:20:02.146Z,6.45
2023-06-19T18:22:29.093Z,6.18
2023-06-19T18:24:55.816Z,6.23
2023-06-19T18:27:23.988Z,6.88
2023-06-19T18:29:50.704Z,6.55
2023-06-19T18:32:17.565Z,6.53
2023-06-19T18:34:44.271Z,6.93
2023-06-19T18:37:11.060Z,8.00
2023-06-19T18:39:37.876Z,6.80
2023-06-19T18:42:05.263Z,6.57
2023-06-19T18:44:33.340Z,6.78
2023-06-19T18:46:59.981Z,10.32
2023-06-19T18:49:28.310Z,8.37
2023-06-19T18:51:56.298Z,9.20
2023-06-19T18:54:22.998Z,8.60
2023-06-19T18:56:49.659Z,8.30
2023-06-19T18:59:16.493Z,9.57
2023-06-19T19:01:44.577Z,7.13
2023-06-19T19:04:11.318Z,7.20
2023-06-19T19:06:37.995Z,7.45
2023-06-19T19:09:04.692Z,8.05
2023-06-19T19:11:32.232Z,8.82
2023-06-19T19:13:58.881Z,8.00
2023-06-19T19:16:25.575Z,8.75
2023-06-19T19:18:53.918Z,7.72
2023-06-19T19:21:20.900Z,7.35
2023-06-19T19:23:47.592Z,9.07
2023-06-19T19:26:14.274Z,7.57
2023-06-19T19:28:40.925Z,9.85
2023-06-19T19:31:07.605Z,10.15
2023-06-19T19:33:35.097Z,7.13
2023-06-19T19:36:03.593Z,7.88
2023-06-19T19:38:30.264Z,7.60
2023-06-19T19:40:57.000Z,8.73
2023-06-19T19:43:23.662Z,8.05
2023-06-19T19:45:50.403Z,8.73
2023-06-19T19:48:17.081Z,9.30
2023-06-19T19:50:43.742Z,8.73
2023-06-19T19:53:11.867Z,7.22
2023-06-19T19:55:38.585Z,8.00
2023-06-19T19:58:05.236Z,8.60
2023-06-19T20:00:31.848Z,9.30
2023-06-19T20:02:58.630Z,7.87
2023-06-19T20:05:25.499Z,8.40
2023-06-19T20:07:52.271Z,10.15
2023-06-19T20:10:20.357Z,12.95
2023-06-19T20:12:47.000Z,12.85
2023-06-19T20:15:13.711Z,11.47
2023-06-19T20:17:40.539Z,10.38
2023-06-19T20:20:08.016Z,10.43
2023-06-19T20:22:34.703Z,12.27
2023-06-19T20:25:01.641Z,11.82
2023-06-19T20:27:29.720Z,11.27
2023-06-19T20:29:56.384Z,9.38
2023-06-19T20:32:23.413Z,9.15
2023-06-19T20:34:50.171Z,9.77
2023-06-19T20:37:16.875Z,8.23
2023-06-19T20:39:43.560Z,9.53
2023-06-19T20:42:10.293Z,8.05
2023-06-19T20:44:38.624Z,8.80
2023-06-19T20:47:06.027Z,9.05
2023-06-19T20:49:32.783Z,10.25
2023-06-19T20:51:59.449Z,8.53
2023-06-19T20:54:26.059Z,8.43
2023-06-19T20:56:52.670Z,9.02
2023-06-19T20:59:19.345Z,8.98
2023-06-19T21:01:50.612Z,8.02
2023-06-19T21:04:17.323Z,8.97
2023-06-19T21:06:43.994Z,7.95
2023-06-19T21:09:10.716Z,9.40
2023-06-19T21:11:37.377Z,8.98
2023-06-19T21:14:04.067Z,7.57
2023-06-19T21:16:30.895Z,7.83
2023-06-19T21:18:59.002Z,9.52
2023-06-19T21:21:25.701Z,8.90
2023-06-19T21:23:52.525Z,9.30
2023-06-19T21:26:19.238Z,8.35
2023-06-19T21:28:45.932Z,9.03
2023-06-19T21:31:12.607Z,9.90
2023-06-19T21:33:39.495Z,8.38
2023-06-19T21:36:08.410Z,9.18
2023-06-19T21:38:35.185Z,8.60
2023-06-19T21:41:02.112Z,7.73
2023-06-19T21:43:28.959Z,10.82
2023-06-19T21:45:55.918Z,8.57
2023-06-19T21:48:22.598Z,8.68
2023-06-19T21:50:49.335Z,8.25
2023-06-19T21:53:17.414Z,11.30
2023-06-19T21:55:44.234Z,9.30
2023-06-19T21:58:10.968Z,8.55
2023-06-19T22:00:37.762Z,10.43
2023-06-19T22:03:04.825Z,7.78
2023-06-19T22:05:31.581Z,9.33
2023-06-19T22:07:58.278Z,9.00
2023-06-19T22:10:26.555Z,9.25
2023-06-19T22:12:53.470Z,8.57
2023-06-19T22:15:20.207Z,8.27
2023-06-19T22:17:46.980Z,8.43
2023-06-19T22:20:14.310Z,8.20
2023-06-19T22:22:41.076Z,9.50
2023-06-19T22:25:08.266Z,9.63
2023-06-19T22:27:36.617Z,9.40
2023-06-19T22:30:03.724Z,8.50
2023-06-19T22:32:30.442Z,9.07
2023-06-19T22:34:57.120Z,9.73
2023-06-19T22:37:24.236Z,7.88
2023-06-19T22:39:50.896Z,9.73
2023-06-19T22:42:17.532Z,9.57
2023-06-19T22:44:45.654Z,9.00
2023-06-19T22:47:12.323Z,9.88
2023-06-19T22:49:39.015Z,9.63
2023-06-19T22:52:06.104Z,10.40
2023-06-19T22:54:32.777Z,9.10
2023-06-19T22:56:59.439Z,9.70
2023-06-19T22:59:26.269Z,8.32
2023-06-19T23:01:54.291Z,8.77
2023-06-19T23:04:20.897Z,9.23
2023-06-19T23:06:48.116Z,9.83
2023-06-19T23:09:14.839Z,8.50
2023-06-19T23:11:41.852Z,9.50
2023-06-19T23:14:08.875Z,8.63
2023-06-19T23:16:35.654Z,9.93
2023-06-19T23:19:03.739Z,9.67
2023-06-19T23:21:30.416Z,10.05
2023-06-19T23:23:57.981Z,8.65
2023-06-19T23:26:24.934Z,9.27
2023-06-19T23:28:51.694Z,8.95
2023-06-19T23:31:18.684Z,9.20
2023-06-19T23:33:45.354Z,11.73
2023-06-19T23:36:13.349Z,9.23
2023-06-19T23:38:40.056Z,8.98
2023-06-19T23:41:07.065Z,9.18
2023-06-19T23:43:33.664Z,9.43
2023-06-19T23:46:00.308Z,9.73
2023-06-19T23:48:26.925Z,9.18
2023-06-19T23:50:53.568Z,11.23
2023-06-19T23:53:21.645Z,8.85
2023-06-19T23:55:48.505Z,9.93
2023-06-19T23:58:15.131Z,10.93
